Time;durP1;ratioP1;P1;durP2;ratioP2;P2;SDS_P1;SDS_P2;PMS_P1;PMS_P2;Temp;Humidity;BMP_temperature;BMP_pressure;BME280_temperature;BME280_humidity;BME280_pressure;Samples;Min_cycle;Max_cycle;Signal;HPM_P1;HPM_P2
2023/08/28 00:00:26;;;;;;;9.68;6.18;;;13.60;92.70;;;;;;5011372;28;20397;-76
2023/08/28 00:02:52;;;;;;;6.82;5.30;;;13.50;93.60;;;;;;5011777;28;20389;-76
2023/08/28 00:05:17;;;;;;;6.43;5.25;;;13.50;94.80;;;;;;5013668;28;20393;-76
2023/08/28 00:07:43;;;;;;;8.67;5.47;;;13.50;95.80;;;;;;5014368;28;20484;-78
2023/08/28 00:10:09;;;;;;;7.00;6.00;;;13.50;94.30;;;;;;5010561;28;20415;-77
2023/08/28 00:12:39;;;;;;;8.20;6.00;;;13.40;96.60;;;;;;5010192;28;20471;-77
2023/08/28 00:15:06;;;;;;;10.35;5.95;;;13.40;98.20;;;;;;5012569;28;20403;-77
2023/08/28 00:17:31;;;;;;;7.10;5.90;;;13.30;99.00;;;;;;5022039;28;20381;-77
2023/08/28 00:19:57;;;;;;;8.20;6.40;;;13.20;99.70;;;;;;5020726;28;20500;-77
2023/08/28 00:22:23;;;;;;;8.75;6.10;;;13.10;99.90;;;;;;5013515;28;20887;-76
2023/08/28 00:24:48;;;;;;;7.30;6.25;;;13.20;99.90;;;;;;5014728;28;20412;-75
2023/08/28 00:27:14;;;;;;;9.10;7.00;;;13.20;99.90;;;;;;5013581;28;20385;-77
2023/08/28 00:29:39;;;;;;;7.97;7.10;;;13.10;99.90;;;;;;5013541;28;20450;-78
2023/08/28 00:32:05;;;;;;;8.90;7.47;;;13.10;99.90;;;;;;5012092;28;20408;-77
2023/08/28 00:34:31;;;;;;;8.37;6.53;;;13.20;99.90;;;;;;5013428;28;20399;-77
2023/08/28 00:36:56;;;;;;;10.00;7.20;;;13.20;99.90;;;;;;5015965;28;20882;-77
2023/08/28 00:39:22;;;;;;;8.60;7.13;;;13.20;99.90;;;;;;5015251;28;20474;-77
2023/08/28 00:41:48;;;;;;;14.88;7.30;;;13.20;99.90;;;;;;5014464;28;20399;-78
2023/08/28 00:44:13;;;;;;;11.65;7.15;;;13.10;99.90;;;;;;5018418;28;20389;-77
2023/08/28 00:46:39;;;;;;;9.37;7.30;;;13.10;99.90;;;;;;5017083;28;20889;-78
2023/08/28 00:49:04;;;;;;;16.10;7.90;;;13.10;99.90;;;;;;5016127;28;20425;-78
2023/08/28 00:51:30;;;;;;;14.63;8.47;;;13.00;99.90;;;;;;5017425;28;20391;-77
2023/08/28 00:53:57;;;;;;;11.55;7.80;;;13.00;99.90;;;;;;5017429;28;20866;-77
2023/08/28 00:56:22;;;;;;;12.30;8.07;;;13.00;99.90;;;;;;5020566;28;20396;-76
2023/08/28 00:58:48;;;;;;;8.55;7.65;;;13.10;99.90;;;;;;5017874;28;20388;-77
2023/08/28 01:01:13;;;;;;;10.80;8.23;;;13.00;99.90;;;;;;5016067;28;20393;-78
2023/08/28 01:03:39;;;;;;;10.13;7.90;;;13.00;99.90;;;;;;5018975;28;20400;-76
2023/08/28 01:06:23;;;;;;;9.45;7.97;;;13.00;99.90;;;;;;5037873;28;20387;-76
2023/08/28 01:09:05;;;;;;;9.85;8.85;;;13.00;99.90;;;;;;5038009;28;20384;-76
2023/08/28 01:12:11;;;;;;;9.30;8.40;;;13.00;99.90;;;;;;5037869;28;20424;-77
2023/08/28 01:15:05;;;;;;;10.90;8.90;;;13.00;99.90;;;;;;4996374;28;20416;-76
2023/08/28 01:17:31;;;;;;;11.45;8.25;;;13.00;99.90;;;;;;4997380;28;20408;-77
2023/08/28 01:19:59;;;;;;;12.77;8.10;;;12.90;99.90;;;;;;5024212;28;20639;-76
2023/08/28 01:23:07;;;;;;;10.67;8.60;;;12.90;99.90;;;;;;5034552;28;20385;-76
2023/08/28 01:25:33;;;;;;;10.60;8.40;;;12.90;99.90;;;;;;5034459;28;20391;-76
2023/08/28 01:27:59;;;;;;;9.50;8.50;;;12.90;99.90;;;;;;5032867;28;20481;-77
2023/08/28 01:30:25;;;;;;;10.27;9.02;;;12.90;99.90;;;;;;5033013;28;20412;-75
2023/08/28 01:32:51;;;;;;;11.30;9.18;;;12.80;99.90;;;;;;5032525;28;20462;-75
2023/08/28 01:35:21;;;;;;;11.63;9.10;;;12.80;99.90;;;;;;5032953;28;20392;-75
2023/08/28 01:38:08;;;;;;;13.13;9.98;;;12.80;99.90;;;;;;5032270;28;20460;-76
2023/08/28 01:40:39;;;;;;;10.70;9.60;;;12.80;99.90;;;;;;5032417;28;20414;-75
2023/08/28 01:43:10;;;;;;;11.48;9.27;;;12.80;99.90;;;;;;5032664;28;20396;-76
2023/08/28 01:45:37;;;;;;;11.02;9.35;;;12.80;99.90;;;;;;5031151;28;20706;-75
2023/08/28 01:48:04;;;;;;;21.55;9.60;;;12.80;99.90;;;;;;5032181;28;20412;-76
2023/08/28 01:50:29;;;;;;;14.03;9.50;;;12.80;99.90;;;;;;5032162;28;20409;-75
2023/08/28 01:52:55;;;;;;;14.13;9.50;;;12.80;99.90;;;;;;5032291;28;20487;-76
2023/08/28 01:55:46;;;;;;;13.30;9.83;;;12.80;99.90;;;;;;5033168;28;20385;-75
2023/08/28 01:58:12;;;;;;;10.93;8.90;;;12.80;99.90;;;;;;5032852;28;20388;-77
2023/08/28 02:00:38;;;;;;;16.02;9.70;;;12.70;99.90;;;;;;5033270;28;20385;-75
2023/08/28 02:03:05;;;;;;;14.38;10.57;;;12.70;99.90;;;;;;5032735;28;20397;-76
2023/08/28 02:05:30;;;;;;;12.43;10.35;;;12.60;99.90;;;;;;5033014;28;20443;-76
2023/08/28 02:07:56;;;;;;;13.17;10.23;;;12.60;99.90;;;;;;5031651;28;20456;-76
2023/08/28 02:10:21;;;;;;;13.30;10.47;;;12.60;99.90;;;;;;5031104;28;20471;-77
2023/08/28 02:12:47;;;;;;;11.77;9.20;;;12.70;99.90;;;;;;5031628;28;20425;-77
2023/08/28 02:15:12;;;;;;;10.95;9.68;;;12.80;99.90;;;;;;5032890;28;20408;-77
2023/08/28 02:17:38;;;;;;;11.87;10.13;;;12.70;99.90;;;;;;5029872;28;20428;-76
2023/08/28 02:20:04;;;;;;;14.60;10.43;;;12.70;99.90;;;;;;5028142;28;20395;-76
2023/08/28 02:22:30;;;;;;;12.15;9.73;;;12.70;99.90;;;;;;5027270;28;20461;-75
2023/08/28 02:24:55;;;;;;;12.90;10.20;;;12.70;99.90;;;;;;5028876;28;20392;-77
2023/08/28 02:27:23;;;;;;;13.35;9.75;;;12.60;99.90;;;;;;5027868;28;20666;-76
2023/08/28 02:29:48;;;;;;;13.30;10.07;;;12.60;99.90;;;;;;5019726;28;20774;-76
2023/08/28 02:32:14;;;;;;;14.03;10.90;;;12.60;99.90;;;;;;5014016;28;20384;-77
2023/08/28 02:34:39;;;;;;;11.90;10.40;;;12.60;99.90;;;;;;5013233;28;20385;-77
2023/08/28 02:37:05;;;;;;;11.68;10.40;;;12.50;99.90;;;;;;5013250;28;20384;-76
2023/08/28 02:39:30;;;;;;;14.57;10.40;;;12.50;99.90;;;;;;5012798;28;20392;-77
2023/08/28 02:41:56;;;;;;;13.40;10.52;;;12.40;99.90;;;;;;5012369;28;20405;-75
2023/08/28 02:44:22;;;;;;;12.47;10.13;;;12.50;99.90;;;;;;5012389;28;20380;-78
2023/08/28 02:46:47;;;;;;;12.93;10.63;;;12.40;99.90;;;;;;5012748;28;20472;-77
2023/08/28 02:49:13;;;;;;;14.80;10.60;;;12.50;99.90;;;;;;5012426;28;20449;-77
2023/08/28 02:51:38;;;;;;;15.68;10.77;;;12.40;99.90;;;;;;5011998;28;20385;-78
2023/08/28 02:54:04;;;;;;;12.20;10.70;;;12.40;99.90;;;;;;5012235;28;20396;-76
2023/08/28 02:56:39;;;;;;;12.23;10.70;;;12.50;99.90;;;;;;5011125;28;20933;-76
2023/08/28 02:59:05;;;;;;;13.20;11.15;;;12.40;99.90;;;;;;5010269;28;20421;-75
2023/08/28 03:01:34;;;;;;;11.73;10.50;;;12.40;99.90;;;;;;5011802;28;20468;-76
2023/08/28 03:04:06;;;;;;;15.60;11.32;;;12.50;99.90;;;;;;5011761;28;20484;-76
2023/08/28 03:06:38;;;;;;;18.30;11.07;;;12.40;99.90;;;;;;5029400;28;20534;-77
2023/08/28 03:09:05;;;;;;;14.90;11.73;;;12.50;99.90;;;;;;5031565;28;20798;-76
2023/08/28 03:11:30;;;;;;;14.52;10.48;;;12.40;99.90;;;;;;5029374;28;20409;-77
2023/08/28 03:13:56;;;;;;;18.90;12.40;;;12.40;99.90;;;;;;5031344;28;20931;-75
2023/08/28 03:16:22;;;;;;;12.13;10.00;;;12.50;99.90;;;;;;5028176;28;20381;-76
2023/08/28 03:18:49;;;;;;;15.97;10.60;;;12.40;99.90;;;;;;5012071;28;20747;-76
2023/08/28 03:21:14;;;;;;;14.35;11.00;;;12.40;99.90;;;;;;5012815;28;20404;-78
2023/08/28 03:23:40;;;;;;;13.00;10.50;;;12.50;99.90;;;;;;5021079;28;20407;-76
2023/08/28 03:26:06;;;;;;;32.97;13.45;;;12.40;99.90;;;;;;5031081;28;20391;-77
2023/08/28 03:28:31;;;;;;;17.55;10.60;;;12.40;99.90;;;;;;5033038;28;20868;-78
2023/08/28 03:30:57;;;;;;;14.00;10.55;;;12.40;99.90;;;;;;5033853;28;20784;-78
2023/08/28 03:33:24;;;;;;;15.57;11.07;;;12.40;99.90;;;;;;5034033;28;20529;-78
2023/08/28 03:35:49;;;;;;;13.05;10.40;;;12.30;99.90;;;;;;5033734;28;20383;-77
2023/08/28 03:38:15;;;;;;;17.70;10.50;;;12.40;99.90;;;;;;5036292;28;20394;-78
2023/08/28 03:40:40;;;;;;;15.07;10.93;;;12.30;99.90;;;;;;5037869;28;20423;-77
2023/08/28 03:43:06;;;;;;;14.00;10.50;;;12.30;99.90;;;;;;5034388;28;20393;-77
2023/08/28 03:45:31;;;;;;;12.80;10.53;;;12.30;99.90;;;;;;5034633;28;20393;-77
2023/08/28 03:47:57;;;;;;;18.53;10.87;;;12.20;99.90;;;;;;5031216;28;20387;-77
2023/08/28 03:50:24;;;;;;;14.40;10.50;;;12.20;99.90;;;;;;5034091;28;20800;-77
2023/08/28 03:52:49;;;;;;;13.52;10.43;;;12.20;99.90;;;;;;5034825;28;20437;-77
2023/08/28 03:55:15;;;;;;;14.20;10.77;;;12.20;99.90;;;;;;5032708;28;20433;-77
2023/08/28 03:57:40;;;;;;;12.00;10.20;;;12.20;99.90;;;;;;5038863;28;20402;-77
2023/08/28 04:00:11;;;;;;;13.82;9.80;;;12.20;99.90;;;;;;5042938;28;20406;-77
2023/08/28 04:02:37;;;;;;;13.23;10.77;;;12.20;99.90;;;;;;5045707;28;20390;-77
2023/08/28 04:05:04;;;;;;;12.23;10.30;;;12.20;99.90;;;;;;5046412;28;20390;-78
2023/08/28 04:07:31;;;;;;;13.23;10.80;;;12.10;99.90;;;;;;5061878;28;20410;-78
2023/08/28 04:09:57;;;;;;;17.53;10.60;;;12.10;99.90;;;;;;5041579;28;20787;-78
2023/08/28 04:12:23;;;;;;;14.40;10.13;;;12.10;99.90;;;;;;5041308;28;20398;-78
2023/08/28 04:14:49;;;;;;;12.70;10.70;;;12.10;99.90;;;;;;5040669;28;20383;-78
2023/08/28 04:17:14;;;;;;;12.70;10.15;;;12.10;99.90;;;;;;5039535;28;20436;-77
2023/08/28 04:19:40;;;;;;;15.10;10.70;;;12.10;99.90;;;;;;5037085;28;20395;-77
2023/08/28 04:22:06;;;;;;;14.88;10.35;;;12.20;99.90;;;;;;5044472;28;20395;-79
2023/08/28 04:24:32;;;;;;;14.77;9.45;;;12.10;99.90;;;;;;5047965;28;20383;-78
2023/08/28 04:26:58;;;;;;;13.27;10.35;;;12.20;99.90;;;;;;5050681;28;20403;-78
2023/08/28 04:29:23;;;;;;;12.45;9.70;;;12.10;99.90;;;;;;5038227;28;20391;-78
2023/08/28 04:31:49;;;;;;;14.77;10.00;;;12.00;99.90;;;;;;5042433;28;20387;-78
2023/08/28 04:34:15;;;;;;;17.93;10.20;;;12.00;99.90;;;;;;5042544;28;20386;-78
2023/08/28 04:36:41;;;;;;;14.35;9.85;;;12.00;99.90;;;;;;5044082;28;20387;-77
2023/08/28 04:39:06;;;;;;;13.80;9.40;;;12.00;99.90;;;;;;5038466;28;20748;-77
2023/08/28 04:41:33;;;;;;;13.67;9.50;;;12.00;99.90;;;;;;5036934;28;20414;-78
2023/08/28 04:43:58;;;;;;;11.13;9.05;;;12.00;99.90;;;;;;5038350;28;20379;-78
2023/08/28 04:46:25;;;;;;;16.53;10.73;;;11.90;99.90;;;;;;5045041;28;20506;-78
2023/08/28 04:48:51;;;;;;;12.05;9.20;;;12.00;99.90;;;;;;5049355;28;20406;-78
2023/08/28 04:51:16;;;;;;;12.00;9.10;;;12.00;99.90;;;;;;5044646;28;20403;-77
2023/08/28 04:53:42;;;;;;;11.93;9.53;;;12.00;99.90;;;;;;5038196;28;20382;-78
2023/08/28 04:56:08;;;;;;;16.60;9.90;;;12.00;99.90;;;;;;5038995;28;20399;-78
2023/08/28 04:58:34;;;;;;;14.15;10.13;;;12.00;99.90;;;;;;5039416;28;20379;-77
2023/08/28 05:01:01;;;;;;;11.98;9.38;;;12.10;99.90;;;;;;5040600;28;20406;-78
2023/08/28 05:03:26;;;;;;;13.60;9.43;;;12.10;99.90;;;;;;5043710;28;20458;-79
2023/08/28 05:05:52;;;;;;;13.13;10.00;;;12.10;99.90;;;;;;5040042;28;20500;-79
2023/08/28 05:08:18;;;;;;;15.90;10.18;;;12.20;99.90;;;;;;5037131;28;20473;-78
2023/08/28 05:10:44;;;;;;;15.90;10.07;;;12.30;99.90;;;;;;5043072;28;20520;-80
2023/08/28 05:13:09;;;;;;;14.15;9.90;;;12.40;99.90;;;;;;5039328;28;20476;-78
2023/08/28 05:15:35;;;;;;;13.85;9.35;;;12.40;99.90;;;;;;5039715;28;20390;-79
2023/08/28 05:18:01;;;;;;;13.07;9.70;;;12.50;99.90;;;;;;5038268;28;20395;-79
2023/08/28 05:20:28;;;;;;;14.10;10.65;;;12.60;99.90;;;;;;5038239;28;20794;-78
2023/08/28 05:22:54;;;;;;;12.57;9.73;;;12.70;99.90;;;;;;5038260;28;20466;-78
2023/08/28 05:25:19;;;;;;;11.80;9.23;;;12.80;99.90;;;;;;5038287;28;20496;-79
2023/08/28 05:27:45;;;;;;;12.53;9.33;;;12.90;99.90;;;;;;5037404;28;20556;-77
2023/08/28 05:30:11;;;;;;;15.02;8.95;;;13.00;99.90;;;;;;5037765;28;20411;-78
2023/08/28 05:32:36;;;;;;;16.58;8.80;;;13.20;99.90;;;;;;5038234;28;20390;-78
2023/08/28 05:35:04;;;;;;;10.67;8.50;;;13.30;99.90;;;;;;5037685;28;20740;-78
2023/08/28 05:37:29;;;;;;;11.20;8.10;;;13.40;99.90;;;;;;5038533;28;20379;-79
2023/08/28 05:39:55;;;;;;;10.37;8.33;;;13.50;99.90;;;;;;5038612;28;20395;-78
2023/08/28 05:42:20;;;;;;;12.57;8.07;;;13.50;98.00;;;;;;5038275;28;20388;-78
2023/08/28 05:44:46;;;;;;;13.85;8.65;;;13.60;97.70;;;;;;5038581;28;20755;-81
2023/08/28 05:47:12;;;;;;;153.45;103.47;;;13.70;95.10;;;;;;5039098;28;20398;-77
2023/08/28 05:49:37;;;;;;;22.73;15.15;;;13.90;97.50;;;;;;5037855;28;20450;-78
2023/08/28 05:52:04;;;;;;;37.88;25.08;;;14.20;87.90;;;;;;5037957;28;20451;-77
2023/08/28 05:54:30;;;;;;;33.43;22.07;;;14.30;84.40;;;;;;5038871;28;20482;-77
2023/08/28 05:56:55;;;;;;;51.60;36.10;;;14.50;82.60;;;;;;5048783;28;20391;-78
2023/08/28 05:59:21;;;;;;;43.90;30.23;;;14.60;80.00;;;;;;5052233;28;20383;-78
2023/08/28 06:01:46;;;;;;;32.00;20.80;;;14.80;77.90;;;;;;5052380;28;20383;-77
2023/08/28 06:04:12;;;;;;;18.27;11.90;;;14.90;74.90;;;;;;5042810;28;20395;-77
2023/08/28 06:06:38;;;;;;;23.67;17.67;;;15.10;70.80;;;;;;5035788;28;20395;-78
2023/08/28 06:09:04;;;;;;;18.38;11.57;;;15.20;70.80;;;;;;5036796;28;20744;-78
2023/08/28 06:11:30;;;;;;;23.23;16.70;;;15.20;70.00;;;;;;5049472;28;20442;-77
2023/08/28 06:13:56;;;;;;;15.53;10.60;;;15.30;67.30;;;;;;5045115;28;20402;-77
2023/08/28 06:16:21;;;;;;;31.83;21.80;;;15.40;65.30;;;;;;5045718;28;20395;-77
2023/08/28 06:18:47;;;;;;;19.42;12.38;;;15.60;65.50;;;;;;5048233;28;20398;-77
2023/08/28 06:21:13;;;;;;;37.17;28.40;;;15.60;62.30;;;;;;5035919;28;20440;-77
2023/08/28 06:23:38;;;;;;;23.47;18.90;;;15.70;62.90;;;;;;5037628;28;20387;-78
2023/08/28 06:26:04;;;;;;;15.07;11.13;;;15.50;63.30;;;;;;5037835;28;20379;-78
2023/08/28 06:28:29;;;;;;;17.27;8.03;;;15.50;61.90;;;;;;5036167;28;20406;-78
2023/08/28 06:30:55;;;;;;;22.35;13.68;;;15.50;61.00;;;;;;5037340;28;20421;-78
2023/08/28 06:33:21;;;;;;;42.10;26.50;;;15.40;61.80;;;;;;5035639;28;20539;-79
2023/08/28 06:35:47;;;;;;;31.77;22.35;;;15.20;65.10;;;;;;5035538;28;20411;-78
2023/08/28 06:38:13;;;;;;;23.33;15.70;;;15.10;66.10;;;;;;5038586;28;20469;-78
2023/08/28 06:40:39;;;;;;;9.82;7.22;;;15.20;66.60;;;;;;5039267;28;20387;-79
2023/08/28 06:43:04;;;;;;;18.83;11.18;;;15.20;64.70;;;;;;5038489;28;20394;-78
2023/08/28 06:45:31;;;;;;;11.85;8.48;;;15.10;66.20;;;;;;5039655;28;20742;-77
2023/08/28 06:47:57;;;;;;;13.35;9.25;;;15.20;67.10;;;;;;5041814;28;20851;-78
2023/08/28 06:50:23;;;;;;;15.48;8.63;;;15.20;67.30;;;;;;5038547;28;20410;-78
2023/08/28 06:52:49;;;;;;;13.60;8.30;;;15.20;66.80;;;;;;5037803;28;20752;-78
2023/08/28 06:55:15;;;;;;;21.83;14.37;;;15.30;66.30;;;;;;5037863;28;20454;-78
2023/08/28 06:57:40;;;;;;;58.83;43.22;;;15.30;65.70;;;;;;5044926;28;20387;-78
2023/08/28 07:00:08;;;;;;;13.07;8.40;;;15.40;66.40;;;;;;5037918;28;20402;-78
2023/08/28 07:02:35;;;;;;;14.18;7.20;;;15.50;64.80;;;;;;5037811;28;20394;-77
2023/08/28 07:05:01;;;;;;;9.75;7.88;;;15.50;64.00;;;;;;5038230;28;20383;-79
2023/08/28 07:07:27;;;;;;;15.90;8.20;;;15.60;64.00;;;;;;5036156;28;20402;-78
2023/08/28 07:09:52;;;;;;;10.13;7.30;;;15.80;63.30;;;;;;5035510;28;20451;-78
2023/08/28 07:12:18;;;;;;;12.67;8.67;;;15.80;62.60;;;;;;5035116;28;20395;-78
2023/08/28 07:14:55;;;;;;;16.10;8.43;;;15.90;62.00;;;;;;5034274;28;20395;-77
2023/08/28 07:17:21;;;;;;;12.45;7.40;;;15.90;60.70;;;;;;5034949;28;20379;-79
2023/08/28 07:19:46;;;;;;;10.65;7.80;;;16.00;60.00;;;;;;5035278;28;20418;-78
2023/08/28 07:22:12;;;;;;;11.77;7.50;;;16.20;58.80;;;;;;5035548;28;20398;-78
2023/08/28 07:24:37;;;;;;;15.43;7.28;;;16.40;57.20;;;;;;5035599;28;20379;-78
2023/08/28 07:27:03;;;;;;;12.98;7.93;;;16.50;55.20;;;;;;5035370;28;20395;-79
2023/08/28 07:29:29;;;;;;;15.20;7.57;;;16.70;53.90;;;;;;5035680;28;20440;-78
2023/08/28 07:31:54;;;;;;;10.67;7.70;;;17.10;52.70;;;;;;5035327;28;20387;-78
2023/08/28 07:34:20;;;;;;;13.10;8.02;;;17.50;51.20;;;;;;5034679;28;20879;-77
2023/08/28 07:36:45;;;;;;;15.03;8.07;;;17.90;47.60;;;;;;5037290;28;20751;-79
2023/08/28 07:39:12;;;;;;;12.00;7.37;;;18.20;44.80;;;;;;5037702;28;20391;-77
2023/08/28 07:41:38;;;;;;;12.93;7.90;;;18.50;43.90;;;;;;5035825;28;20395;-79
2023/08/28 07:44:03;;;;;;;14.10;8.70;;;18.50;41.90;;;;;;5035665;28;20375;-79
2023/08/28 07:46:30;;;;;;;12.50;7.90;;;18.40;42.30;;;;;;5036516;28;20387;-79
2023/08/28 07:48:56;;;;;;;20.80;8.70;;;18.30;42.50;;;;;;5035181;28;20383;-78
2023/08/28 07:51:22;;;;;;;11.03;7.70;;;18.10;42.40;;;;;;5035365;28;20489;-79
2023/08/28 07:53:47;;;;;;;13.10;8.23;;;18.20;43.70;;;;;;5036051;28;20414;-77
2023/08/28 07:56:13;;;;;;;10.57;7.93;;;18.20;43.40;;;;;;5042227;28;20375;-78
2023/08/28 07:58:39;;;;;;;12.87;8.73;;;18.20;43.20;;;;;;5040034;28;20840;-77
2023/08/28 08:01:05;;;;;;;16.80;8.30;;;18.30;43.80;;;;;;5033539;28;20394;-77
2023/08/28 08:03:31;;;;;;;14.77;8.80;;;18.30;42.50;;;;;;5035613;28;20395;-78
2023/08/28 08:05:57;;;;;;;12.13;8.80;;;18.30;43.20;;;;;;5034169;28;21078;-77
2023/08/28 08:08:22;;;;;;;13.57;9.13;;;18.30;42.30;;;;;;5035190;28;20402;-79
2023/08/28 08:10:48;;;;;;;10.63;7.93;;;18.30;42.90;;;;;;5036828;28;20729;-79
2023/08/28 08:13:26;;;;;;;17.25;9.07;;;18.30;42.60;;;;;;5036990;28;20481;-79
2023/08/28 08:15:52;;;;;;;10.93;7.68;;;18.50;42.30;;;;;;5017051;28;20903;-78
2023/08/28 08:18:18;;;;;;;15.60;8.80;;;18.80;41.20;;;;;;5032492;28;20462;-77
2023/08/28 08:20:44;;;;;;;12.37;7.70;;;19.10;39.50;;;;;;5036177;28;20450;-77
2023/08/28 08:23:10;;;;;;;10.05;6.93;;;19.50;38.20;;;;;;5037699;28;20402;-78
2023/08/28 08:25:36;;;;;;;14.13;7.60;;;20.20;36.10;;;;;;5038519;28;20930;-78
2023/08/28 08:28:02;;;;;;;12.52;7.10;;;20.40;34.80;;;;;;5040104;28;20454;-79
2023/08/28 08:30:28;;;;;;;12.63;7.57;;;20.30;33.90;;;;;;5033293;28;20418;-77
2023/08/28 08:32:53;;;;;;;8.20;6.30;;;20.30;34.90;;;;;;5032444;28;20467;-77
2023/08/28 08:35:20;;;;;;;11.98;6.40;;;20.60;33.70;;;;;;5036362;28;20465;-78
2023/08/28 08:37:47;;;;;;;10.43;5.75;;;20.80;33.00;;;;;;5037505;28;20397;-79
2023/08/28 08:40:13;;;;;;;14.93;6.30;;;20.60;33.90;;;;;;5038662;28;20389;-78
2023/08/28 08:42:39;;;;;;;8.10;4.50;;;20.50;34.30;;;;;;5041222;28;20391;-78
2023/08/28 08:45:06;;;;;;;13.48;4.40;;;20.20;35.40;;;;;;5050766;28;20391;-77
2023/08/28 08:47:33;;;;;;;5.70;3.80;;;19.90;34.90;;;;;;5046197;28;20398;-77
2023/08/28 08:50:02;;;;;;;9.02;4.90;;;20.10;35.50;;;;;;5041233;28;20421;-78
2023/08/28 08:52:29;;;;;;;5.00;3.70;;;20.20;34.90;;;;;;5042528;28;20474;-78
2023/08/28 08:55:05;;;;;;;9.07;3.08;;;20.60;33.60;;;;;;5043094;28;20391;-77
2023/08/28 08:57:39;;;;;;;7.50;3.10;;;20.80;32.60;;;;;;5049979;28;20386;-77
2023/08/28 09:00:12;;;;;;;5.40;2.53;;;21.00;31.80;;;;;;5046790;28;20409;-78
2023/08/28 09:02:40;;;;;;;5.85;2.20;;;20.90;32.10;;;;;;5045825;28;20391;-78
2023/08/28 09:05:06;;;;;;;2.83;1.52;;;20.80;31.80;;;;;;5044308;28;20391;-77
2023/08/28 09:07:33;;;;;;;7.55;2.40;;;21.10;30.70;;;;;;5044835;28;20391;-77
2023/08/28 09:09:59;;;;;;;4.68;2.15;;;21.00;30.50;;;;;;5050248;28;20443;-78
2023/08/28 09:12:27;;;;;;;7.45;2.67;;;20.70;31.40;;;;;;5045098;28;20423;-79
2023/08/28 09:14:53;;;;;;;2.47;1.48;;;20.60;31.70;;;;;;5041070;28;20474;-78
2023/08/28 09:17:19;;;;;;;4.18;1.80;;;20.60;31.00;;;;;;5045056;28;20398;-77
2023/08/28 09:19:45;;;;;;;5.35;2.00;;;20.70;30.80;;;;;;5018812;28;20399;-78
2023/08/28 09:22:11;;;;;;;5.53;2.97;;;20.90;29.90;;;;;;5035295;28;20784;-79
2023/08/28 09:24:37;;;;;;;4.83;3.20;;;21.30;30.00;;;;;;5038673;28;20596;-78
2023/08/28 09:27:03;;;;;;;3.33;1.90;;;21.60;29.20;;;;;;5037456;28;20391;-79
2023/08/28 09:29:29;;;;;;;6.10;2.30;;;21.60;27.50;;;;;;5036092;28;20757;-78
2023/08/28 09:32:05;;;;;;;6.63;2.13;;;21.40;27.80;;;;;;5036484;28;20787;-78
2023/08/28 09:34:41;;;;;;;2.80;2.10;;;21.30;29.40;;;;;;5036816;28;20474;-79
2023/08/28 09:37:13;;;;;;;5.47;2.08;;;21.40;28.90;;;;;;5035741;28;20391;-79
2023/08/28 09:39:40;;;;;;;3.78;2.25;;;21.50;28.60;;;;;;5036809;28;20419;-79
2023/08/28 09:42:08;;;;;;;7.68;2.40;;;21.50;26.90;;;;;;5037165;28;20411;-78
2023/08/28 09:44:37;;;;;;;7.03;2.40;;;21.40;26.90;;;;;;5034869;28;20445;-78
2023/08/28 09:47:04;;;;;;;4.32;2.53;;;21.20;27.50;;;;;;5035942;28;20395;-79
2023/08/28 09:49:29;;;;;;;5.50;2.70;;;21.00;27.60;;;;;;5036561;28;20385;-78
2023/08/28 09:51:59;;;;;;;3.00;2.17;;;21.10;29.20;;;;;;5036580;28;20387;-78
2023/08/28 09:54:24;;;;;;;4.60;2.28;;;21.10;28.70;;;;;;5037474;28;20919;-79
2023/08/28 09:56:51;;;;;;;4.33;2.83;;;21.50;28.70;;;;;;5036322;28;20387;-77
2023/08/28 09:59:16;;;;;;;6.97;2.88;;;21.90;27.90;;;;;;5035910;28;20445;-79
2023/08/28 10:01:42;;;;;;;6.27;2.80;;;21.90;27.30;;;;;;5037372;28;20896;-78
2023/08/28 10:04:10;;;;;;;3.90;2.30;;;21.90;25.90;;;;;;5036087;28;20869;-79
2023/08/28 10:06:52;;;;;;;5.72;2.10;;;21.60;26.00;;;;;;5035452;28;20383;-78
2023/08/28 10:09:21;;;;;;;4.55;1.80;;;21.30;26.10;;;;;;5037767;28;20391;-79
2023/08/28 10:11:50;;;;;;;4.97;2.30;;;21.50;26.30;;;;;;5036274;28;20414;-78
2023/08/28 10:14:17;;;;;;;3.08;2.42;;;22.00;25.40;;;;;;5037992;28;20383;-79
2023/08/28 10:16:57;;;;;;;4.80;2.20;;;22.30;24.20;;;;;;5037339;28;20418;-79
2023/08/28 10:19:34;;;;;;;3.40;2.45;;;22.10;25.90;;;;;;5038726;28;20419;-78
2023/08/28 10:22:02;;;;;;;4.10;1.60;;;21.90;25.80;;;;;;5038837;28;20407;-78
2023/08/28 10:24:30;;;;;;;2.60;1.80;;;21.80;24.40;;;;;;5039667;28;20487;-78
2023/08/28 10:26:57;;;;;;;2.40;1.63;;;21.20;25.30;;;;;;5036029;28;20391;-78
2023/08/28 10:29:26;;;;;;;2.53;1.85;;;21.00;26.00;;;;;;5039577;28;20387;-78
2023/08/28 10:31:53;;;;;;;2.10;1.42;;;20.90;26.80;;;;;;5040516;28;20405;-78
2023/08/28 10:34:20;;;;;;;2.30;1.48;;;21.00;26.00;;;;;;5050225;28;20439;-79
2023/08/28 10:36:47;;;;;;;1.40;1.13;;;21.00;24.20;;;;;;5055505;28;20434;-78
2023/08/28 10:39:13;;;;;;;3.08;1.42;;;20.90;23.40;;;;;;5053945;28;20413;-78
2023/08/28 10:41:40;;;;;;;3.30;1.63;;;21.00;25.30;;;;;;5038380;28;20415;-78
2023/08/28 10:44:07;;;;;;;4.40;1.98;;;21.30;24.40;;;;;;5041682;28;20390;-78
2023/08/28 10:46:33;;;;;;;5.35;2.50;;;21.70;24.40;;;;;;5038502;28;20474;-79
2023/08/28 10:49:03;;;;;;;4.80;2.00;;;22.20;23.20;;;;;;5035714;28;20453;-77
2023/08/28 10:51:37;;;;;;;2.23;1.60;;;22.30;22.60;;;;;;5035102;28;20791;-78
2023/08/28 10:54:07;;;;;;;3.60;1.88;;;22.40;22.80;;;;;;5036851;28;20399;-77
2023/08/28 10:56:38;;;;;;;3.53;1.98;;;22.00;22.80;;;;;;5039349;28;20801;-77
2023/08/28 10:59:24;;;;;;;2.95;2.13;;;22.10;23.60;;;;;;5037185;28;20387;-79
2023/08/28 11:01:55;;;;;;;3.08;2.17;;;22.30;23.50;;;;;;5035409;28;20391;-78
2023/08/28 11:04:31;;;;;;;2.90;2.10;;;22.50;22.70;;;;;;5045033;28;20415;-78
2023/08/28 11:06:57;;;;;;;4.85;2.17;;;22.70;22.70;;;;;;5044485;28;20398;-78
2023/08/28 11:09:29;;;;;;;7.20;2.30;;;23.00;21.30;;;;;;5040646;28;20856;-79
2023/08/28 11:11:57;;;;;;;2.58;1.70;;;23.10;21.50;;;;;;5039314;28;20421;-79
2023/08/28 11:14:52;;;;;;;3.53;1.70;;;23.20;22.40;;;;;;5036146;28;20391;-79
2023/08/28 11:17:22;;;;;;;3.40;2.00;;;23.30;21.20;;;;;;5049245;28;20490;-79
2023/08/28 11:19:56;;;;;;;2.35;1.77;;;23.20;20.90;;;;;;5039026;28;20387;-80
2023/08/28 11:22:31;;;;;;;5.32;2.42;;;23.00;21.50;;;;;;5038345;28;20418;-78
2023/08/28 11:24:57;;;;;;;2.03;1.80;;;22.50;22.70;;;;;;5037774;28;20387;-77
2023/08/28 11:27:34;;;;;;;3.65;2.67;;;22.60;23.10;;;;;;5038371;28;20448;-79
2023/08/28 11:30:06;;;;;;;3.30;2.20;;;23.10;20.80;;;;;;5039016;28;20411;-79
2023/08/28 11:32:36;;;;;;;4.30;2.00;;;23.60;19.80;;;;;;5037885;28;20379;-78
2023/08/28 11:35:05;;;;;;;4.30;1.85;;;23.20;20.10;;;;;;5038471;28;20391;-79
2023/08/28 11:37:42;;;;;;;5.40;2.17;;;22.40;22.40;;;;;;5038420;28;20394;-77
2023/08/28 11:40:09;;;;;;;4.60;1.73;;;21.90;22.70;;;;;;5039228;28;20450;-78
2023/08/28 11:42:36;;;;;;;4.03;1.90;;;21.60;23.50;;;;;;5038981;28;20391;-78
2023/08/28 11:45:06;;;;;;;2.38;1.90;;;21.60;24.30;;;;;;5038314;28;20486;-78
2023/08/28 11:47:33;;;;;;;4.20;1.67;;;21.60;23.70;;;;;;5037012;28;20394;-79
2023/08/28 11:49:59;;;;;;;3.05;1.60;;;21.70;23.00;;;;;;5036446;28;20475;-79
2023/08/28 11:52:26;;;;;;;3.30;1.83;;;21.70;23.80;;;;;;5036172;28;20379;-80
2023/08/28 11:54:57;;;;;;;4.20;1.85;;;21.90;22.80;;;;;;5037984;28;20398;-78
2023/08/28 11:57:25;;;;;;;2.60;1.80;;;22.20;23.70;;;;;;5039298;28;20515;-78
2023/08/28 11:59:51;;;;;;;4.43;2.00;;;22.30;21.80;;;;;;5039993;28;20434;-78
2023/08/28 12:02:19;;;;;;;3.42;1.60;;;22.50;21.20;;;;;;5041499;28;20438;-78
2023/08/28 12:04:50;;;;;;;3.67;1.80;;;23.00;20.30;;;;;;5045222;28;20406;-78
2023/08/28 12:07:17;;;;;;;2.92;2.38;;;23.30;19.30;;;;;;5048304;28;20394;-78
2023/08/28 12:09:45;;;;;;;2.33;2.05;;;23.60;19.20;;;;;;5046202;28;20399;-77
2023/08/28 12:12:12;;;;;;;5.00;1.60;;;23.80;17.90;;;;;;5050048;28;20399;-78
2023/08/28 12:14:37;;;;;;;5.90;1.90;;;24.30;17.30;;;;;;5047061;28;20387;-79
2023/08/28 12:17:03;;;;;;;4.20;2.00;;;24.70;16.50;;;;;;5037905;28;20391;-78
2023/08/28 12:19:30;;;;;;;4.10;2.50;;;24.70;16.90;;;;;;5035562;28;20756;-77
2023/08/28 12:22:06;;;;;;;6.55;3.17;;;24.30;16.60;;;;;;5046182;28;20399;-78
2023/08/28 12:24:32;;;;;;;6.00;3.10;;;23.80;18.20;;;;;;5046551;28;20383;-78
2023/08/28 12:26:57;;;;;;;5.28;3.30;;;24.00;16.70;;;;;;5044398;28;20783;-78
2023/08/28 12:29:26;;;;;;;3.83;2.90;;;24.00;16.50;;;;;;5044116;28;20429;-78
2023/08/28 12:31:52;;;;;;;4.70;3.40;;;24.00;16.50;;;;;;5052743;28;20395;-77
2023/08/28 12:34:19;;;;;;;8.07;3.35;;;24.20;17.00;;;;;;5058830;28;20409;-77
2023/08/28 12:36:46;;;;;;;5.38;2.58;;;24.30;16.70;;;;;;5057987;28;20460;-77
2023/08/28 12:39:19;;;;;;;3.40;2.50;;;24.40;16.90;;;;;;5055816;28;20390;-77